RV Helmer Hanssen — LAHV — position and weather

sailwx.info

Track history (hours):
 
Tides and Currents Weather Stations Pressure Air Temp Water Temp Dewpoint Dewpoint Depression Visibility Wind Speed Wind Dir Waves Ship Positions

Oceanographic research ship RV Helmer Hanssen (Norway)

ex Jan Mayen.

Ship's website: http://uit.no/bfe

Detailed information on ship capabilities available from University of Delaware's Ocean Information Center and ARCUS's ALIAS (Arctic Logistics Information and Support) project.

Last reported at 2020-Jul-09 02:34 UTC. Time now 2020-Jul-15 17:58 UTC.
Position N 72°13' E 023°17'.

Length 64 m; beam 13 m.

Type: Other ship. MMSI: 257471500.

Date/timePositionNaut miles runAvg speedWind from/ knotsBaromVisibWave heightAir tempDewpointWater temp
2020-Jul-09 02:34N 72°13' E 023°17'33 7.2
2020-Jul-08 21:59N 71°46' E 022°16'1611.0
2020-Jul-08 20:30N 71°30' E 022°17'22 7.5
2020-Jul-08 17:30N 71°08' E 022°06'611.5
2020-Jul-08 16:59N 71°03' E 021°56'1711.5
2020-Jul-08 15:30N 70°48' E 021°29'1811.7
2020-Jul-08 13:59N 70°33' E 021°01'611.7
2020-Jul-08 13:30N 70°28' E 020°53'611.4
2020-Jul-08 13:00N 70°23' E 020°44'611.4
2020-Jul-08 12:31N 70°18' E 020°35'1711.2
2020-Jul-08 11:00N 70°04' E 020°10'35 6.3
2020-Jul-08 05:30N 69°39' E 018°58'0 0.0
2020-Jul-08 03:00N 69°39' E 018°58'0 0.0
2020-Jul-07 23:00N 69°39' E 018°58'0 0.0
2020-Jul-07 22:00N 69°39' E 018°58'0 0.0
2020-Jul-07 20:30N 69°39' E 018°58'0 0.0
2020-Jul-07 18:29N 69°39' E 018°58'0 0.0
2020-Jul-07 15:59N 69°39' E 018°58'0 0.0
2020-Jul-07 14:59N 69°39' E 018°58'0 0.0
2020-Jul-07 13:59N 69°39' E 018°58'0 0.0
2020-Jul-07 12:59N 69°39' E 018°58'0 0.0
2020-Jul-07 11:29N 69°39' E 018°58'0 0.0
2020-Jul-07 10:59N 69°39' E 018°58'0 0.0
2020-Jul-07 07:29N 69°39' E 018°58'0 0.0
2020-Jul-07 05:29N 69°39' E 018°58'0 0.0
2020-Jul-07 04:59N 69°39' E 018°58'0 0.0
2020-Jul-07 03:29N 69°39' E 018°58'0 0.0
2020-Jul-07 02:59N 69°39' E 018°58'0 0.0
2020-Jul-06 23:59N 69°39' E 018°58'0 0.0
2020-Jul-06 22:29N 69°39' E 018°58'0 0.0
2020-Jul-06 18:59N 69°39' E 018°58'0 0.0
2020-Jul-06 18:29N 69°39' E 018°58'0 0.0
2020-Jul-06 17:29N 69°39' E 018°58'0 0.0
2020-Jul-06 16:59N 69°39' E 018°58'0 0.0
2020-Jul-06 11:59N 69°39' E 018°58'0 0.0
2020-Jul-06 10:59N 69°39' E 018°58'0 0.0
2020-Jul-06 09:59N 69°39' E 018°58'0 0.7
2020-Jul-06 09:31N 69°40' E 018°59'3 2.9
2020-Jul-06 08:29N 69°42' E 019°05'0 0.0
2020-Jul-06 07:59N 69°42' E 019°04'3 0.9
2020-Jul-06 04:30N 69°39' E 018°58'0 0.0
2020-Jul-06 03:00N 69°39' E 018°58'0 0.0
2020-Jul-06 02:30N 69°39' E 018°58'0 0.0
2020-Jul-06 01:30N 69°39' E 018°58'0 0.0
2020-Jul-05 22:00N 69°39' E 018°58'0 0.0
2020-Jul-05 20:00N 69°39' E 018°58'0 0.0
2020-Jul-05 16:00N 69°39' E 018°58'0 0.0
2020-Jul-05 15:30N 69°39' E 018°58'0 0.0
2020-Jul-05 12:30N 69°39' E 018°58'0 0.0
2020-Jul-05 10:30N 69°39' E 018°58'0 0.0
2020-Jul-05 05:30N 69°39' E 018°58'0 0.0
2020-Jul-05 04:00N 69°39' E 018°58'0 0.0
2020-Jul-05 03:00N 69°39' E 018°58'0 0.0
2020-Jul-05 02:00N 69°39' E 018°58'0 0.0
2020-Jul-04 22:30N 69°39' E 018°58'0 0.0
2020-Jul-04 20:00N 69°39' E 018°58'0 0.0
2020-Jul-04 19:30N 69°39' E 018°58'0 0.0
2020-Jul-04 18:30N 69°39' E 018°58'0 0.0
2020-Jul-04 12:29N 69°39' E 018°58'0 0.0
2020-Jul-04 11:29N 69°39' E 018°58'0 0.0
2020-Jul-04 02:59N 69°39' E 018°58'0 0.0
2020-Jul-04 01:59N 69°39' E 018°58'0 0.0
2020-Jul-03 21:29N 69°39' E 018°58'0 0.0
2020-Jul-03 20:59N 69°39' E 018°58'0 0.0
2020-Jul-03 17:59N 69°39' E 018°58'0 0.0
2020-Jul-03 16:29N 69°39' E 018°58'0 0.0
2020-Jul-03 15:59N 69°39' E 018°58'0 0.0
2020-Jul-03 15:29N 69°39' E 018°58'0 0.0
2020-Jul-03 14:29N 69°39' E 018°58'0 0.0
2020-Jul-03 13:59N 69°39' E 018°58'0 0.0
2020-Jul-03 13:29N 69°39' E 018°58'0 0.0
2020-Jul-03 10:29N 69°39' E 018°58'0 0.0
2020-Jul-03 09:59N 69°39' E 018°58'0 0.0
2020-Jul-03 09:29N 69°39' E 018°58'0 0.0
2020-Jul-03 08:59N 69°39' E 018°58'0 0.0
2020-Jul-03 08:29N 69°39' E 018°58'0 0.0
2020-Jul-03 06:26N 69°39' E 018°58'0 0.0
2020-Jul-03 03:58N 69°39' E 018°58'0 0.0
2020-Jul-03 02:58N 69°39' E 018°58'0 0.0
2020-Jul-03 02:28N 69°39' E 018°58'0 0.0
2020-Jul-02 20:28N 69°39' E 018°58'0 0.0
2020-Jul-02 19:28N 69°39' E 018°58'0 0.0
2020-Jul-02 18:28N 69°39' E 018°58'0 0.0
2020-Jul-02 15:58N 69°39' E 018°58'0 0.0
2020-Jul-02 14:28N 69°39' E 018°58'0 0.0
2020-Jul-02 11:28N 69°39' E 018°58'0 0.0
2020-Jul-02 10:58N 69°39' E 018°58'0 0.0
2020-Jul-02 10:28N 69°39' E 018°58'0 0.0
2020-Jul-02 09:28N 69°39' E 018°58'0 0.0
2020-Jul-02 08:58N 69°39' E 018°58'0 0.0
2020-Jul-02 06:28N 69°39' E 018°58'0 0.0
2020-Jul-02 03:58N 69°39' E 018°58'0 0.0
2020-Jul-02 03:28N 69°39' E 018°58'0 0.0
2020-Jul-02 02:28N 69°39' E 018°58'0 0.0
2020-Jul-02 01:28N 69°39' E 018°58'0 0.0
2020-Jul-01 23:28N 69°39' E 018°58'0 0.0
2020-Jul-01 18:31N 69°39' E 018°58'0 0.0
2020-Jul-01 16:00N 69°39' E 018°58'0 0.0
2020-Jul-01 13:30N 69°39' E 018°58'0 0.0
2020-Jul-01 05:30N 69°39' E 018°58'7 5.0
2020-Jul-01 04:00N 69°46' E 019°08'15 9.7
2020-Jul-01 02:30N 69°57' E 019°36'24 9.7
2020-Jul-01 00:00N 70°21' E 019°23'2710.7
2020-Jun-30 21:30N 70°47' E 019°12'19610.9
2020-Jun-30 03:30N 74°02' E 017°48'1110.9
2020-Jun-30 02:30N 74°13' E 017°43'2311.3
2020-Jun-30 00:30N 74°35' E 017°32'1711.3
2020-Jun-29 23:00N 74°52' E 017°24'3 6.0
2020-Jun-29 22:30N 74°55' E 017°21'6 0.4
2020-Jun-29 07:00N 74°51' E 017°40'8 5.3
2020-Jun-29 05:29N 74°52' E 017°10'  
Track history (hours):
 
Tides and Currents Weather Stations Pressure Air Temp Water Temp Dewpoint Dewpoint Depression Visibility Wind Speed Wind Dir Waves Ship Positions

Oceanographic research ship RV Helmer Hanssen (Norway)

ex Jan Mayen.

Ship's website: http://uit.no/bfe

Detailed information on ship capabilities available from University of Delaware's Ocean Information Center and ARCUS's ALIAS (Arctic Logistics Information and Support) project.

Last reported at 2020-Jul-09 02:34 UTC. Time now 2020-Jul-15 17:58 UTC.
Position N 72°13' E 023°17'.

Length 64 m; beam 13 m.

Type: Other ship. MMSI: 257471500.

Date/timePositionNaut miles runAvg speedWind from/ knotsBaromVisibWave heightAir tempDewpointWater temp
2020-Jul-09 02:34N 72°13' E 023°17'33 7.2
2020-Jul-08 21:59N 71°46' E 022°16'1611.0
2020-Jul-08 20:30N 71°30' E 022°17'22 7.5
2020-Jul-08 17:30N 71°08' E 022°06'611.5
2020-Jul-08 16:59N 71°03' E 021°56'1711.5
2020-Jul-08 15:30N 70°48' E 021°29'1811.7
2020-Jul-08 13:59N 70°33' E 021°01'611.7
2020-Jul-08 13:30N 70°28' E 020°53'611.4
2020-Jul-08 13:00N 70°23' E 020°44'611.4
2020-Jul-08 12:31N 70°18' E 020°35'1711.2
2020-Jul-08 11:00N 70°04' E 020°10'35 6.3
2020-Jul-08 05:30N 69°39' E 018°58'0 0.0
2020-Jul-08 03:00N 69°39' E 018°58'0 0.0
2020-Jul-07 23:00N 69°39' E 018°58'0 0.0
2020-Jul-07 22:00N 69°39' E 018°58'0 0.0
2020-Jul-07 20:30N 69°39' E 018°58'0 0.0
2020-Jul-07 18:29N 69°39' E 018°58'0 0.0
2020-Jul-07 15:59N 69°39' E 018°58'0 0.0
2020-Jul-07 14:59N 69°39' E 018°58'0 0.0
2020-Jul-07 13:59N 69°39' E 018°58'0 0.0
2020-Jul-07 12:59N 69°39' E 018°58'0 0.0
2020-Jul-07 11:29N 69°39' E 018°58'0 0.0
2020-Jul-07 10:59N 69°39' E 018°58'0 0.0
2020-Jul-07 07:29N 69°39' E 018°58'0 0.0
2020-Jul-07 05:29N 69°39' E 018°58'0 0.0
2020-Jul-07 04:59N 69°39' E 018°58'0 0.0
2020-Jul-07 03:29N 69°39' E 018°58'0 0.0
2020-Jul-07 02:59N 69°39' E 018°58'0 0.0
2020-Jul-06 23:59N 69°39' E 018°58'0 0.0
2020-Jul-06 22:29N 69°39' E 018°58'0 0.0
2020-Jul-06 18:59N 69°39' E 018°58'0 0.0
2020-Jul-06 18:29N 69°39' E 018°58'0 0.0
2020-Jul-06 17:29N 69°39' E 018°58'0 0.0
2020-Jul-06 16:59N 69°39' E 018°58'0 0.0
2020-Jul-06 11:59N 69°39' E 018°58'0 0.0
2020-Jul-06 10:59N 69°39' E 018°58'0 0.0
2020-Jul-06 09:59N 69°39' E 018°58'0 0.7
2020-Jul-06 09:31N 69°40' E 018°59'3 2.9
2020-Jul-06 08:29N 69°42' E 019°05'0 0.0
2020-Jul-06 07:59N 69°42' E 019°04'3 0.9
2020-Jul-06 04:30N 69°39' E 018°58'0 0.0
2020-Jul-06 03:00N 69°39' E 018°58'0 0.0
2020-Jul-06 02:30N 69°39' E 018°58'0 0.0
2020-Jul-06 01:30N 69°39' E 018°58'0 0.0
2020-Jul-05 22:00N 69°39' E 018°58'0 0.0
2020-Jul-05 20:00N 69°39' E 018°58'0 0.0
2020-Jul-05 16:00N 69°39' E 018°58'0 0.0
2020-Jul-05 15:30N 69°39' E 018°58'0 0.0
2020-Jul-05 12:30N 69°39' E 018°58'0 0.0
2020-Jul-05 10:30N 69°39' E 018°58'0 0.0
2020-Jul-05 05:30N 69°39' E 018°58'0 0.0
2020-Jul-05 04:00N 69°39' E 018°58'0 0.0
2020-Jul-05 03:00N 69°39' E 018°58'0 0.0
2020-Jul-05 02:00N 69°39' E 018°58'0 0.0
2020-Jul-04 22:30N 69°39' E 018°58'0 0.0
2020-Jul-04 20:00N 69°39' E 018°58'0 0.0
2020-Jul-04 19:30N 69°39' E 018°58'0 0.0
2020-Jul-04 18:30N 69°39' E 018°58'0 0.0
2020-Jul-04 12:29N 69°39' E 018°58'0 0.0
2020-Jul-04 11:29N 69°39' E 018°58'0 0.0
2020-Jul-04 02:59N 69°39' E 018°58'0 0.0
2020-Jul-04 01:59N 69°39' E 018°58'0 0.0
2020-Jul-03 21:29N 69°39' E 018°58'0 0.0
2020-Jul-03 20:59N 69°39' E 018°58'0 0.0
2020-Jul-03 17:59N 69°39' E 018°58'0 0.0
2020-Jul-03 16:29N 69°39' E 018°58'0 0.0
2020-Jul-03 15:59N 69°39' E 018°58'0 0.0
2020-Jul-03 15:29N 69°39' E 018°58'0 0.0
2020-Jul-03 14:29N 69°39' E 018°58'0 0.0
2020-Jul-03 13:59N 69°39' E 018°58'0 0.0
2020-Jul-03 13:29N 69°39' E 018°58'0 0.0
2020-Jul-03 10:29N 69°39' E 018°58'0 0.0
2020-Jul-03 09:59N 69°39' E 018°58'0 0.0
2020-Jul-03 09:29N 69°39' E 018°58'0 0.0
2020-Jul-03 08:59N 69°39' E 018°58'0 0.0
2020-Jul-03 08:29N 69°39' E 018°58'0 0.0
2020-Jul-03 06:26N 69°39' E 018°58'0 0.0
2020-Jul-03 03:58N 69°39' E 018°58'0 0.0
2020-Jul-03 02:58N 69°39' E 018°58'0 0.0
2020-Jul-03 02:28N 69°39' E 018°58'0 0.0
2020-Jul-02 20:28N 69°39' E 018°58'0 0.0
2020-Jul-02 19:28N 69°39' E 018°58'0 0.0
2020-Jul-02 18:28N 69°39' E 018°58'0 0.0
2020-Jul-02 15:58N 69°39' E 018°58'0 0.0
2020-Jul-02 14:28N 69°39' E 018°58'0 0.0
2020-Jul-02 11:28N 69°39' E 018°58'0 0.0
2020-Jul-02 10:58N 69°39' E 018°58'0 0.0
2020-Jul-02 10:28N 69°39' E 018°58'0 0.0
2020-Jul-02 09:28N 69°39' E 018°58'0 0.0
2020-Jul-02 08:58N 69°39' E 018°58'0 0.0
2020-Jul-02 06:28N 69°39' E 018°58'0 0.0
2020-Jul-02 03:58N 69°39' E 018°58'0 0.0
2020-Jul-02 03:28N 69°39' E 018°58'0 0.0
2020-Jul-02 02:28N 69°39' E 018°58'0 0.0
2020-Jul-02 01:28N 69°39' E 018°58'0 0.0
2020-Jul-01 23:28N 69°39' E 018°58'0 0.0
2020-Jul-01 18:31N 69°39' E 018°58'0 0.0
2020-Jul-01 16:00N 69°39' E 018°58'0 0.0
2020-Jul-01 13:30N 69°39' E 018°58'0 0.0
2020-Jul-01 05:30N 69°39' E 018°58'7 5.0
2020-Jul-01 04:00N 69°46' E 019°08'15 9.7
2020-Jul-01 02:30N 69°57' E 019°36'24 9.7
2020-Jul-01 00:00N 70°21' E 019°23'2710.7
2020-Jun-30 21:30N 70°47' E 019°12'19610.9
2020-Jun-30 03:30N 74°02' E 017°48'1110.9
2020-Jun-30 02:30N 74°13' E 017°43'2311.3
2020-Jun-30 00:30N 74°35' E 017°32'1711.3
2020-Jun-29 23:00N 74°52' E 017°24'3 6.0
2020-Jun-29 22:30N 74°55' E 017°21'6 0.4
2020-Jun-29 07:00N 74°51' E 017°40'8 5.3
2020-Jun-29 05:29N 74°52' E 017°10'  

Dump ship's entire track history